createdAt,value
2018-07-15T00:02:06.052Z,67.20
2018-07-15T00:04:34.252Z,67.36
2018-07-15T00:07:02.310Z,67.71
2018-07-15T00:09:30.331Z,67.48
2018-07-15T00:11:58.384Z,67.70
2018-07-15T00:14:26.447Z,67.95
2018-07-15T00:16:54.484Z,67.89
2018-07-15T00:19:22.511Z,67.86
2018-07-15T00:21:50.549Z,67.75
2018-07-15T00:24:18.583Z,68.00
2018-07-15T00:26:46.617Z,68.09
2018-07-15T00:29:14.649Z,68.18
2018-07-15T00:31:42.692Z,68.29
2018-07-15T00:34:10.709Z,68.00
2018-07-15T00:36:38.744Z,68.48
2018-07-15T00:39:07.141Z,68.81
2018-07-15T00:41:35.216Z,68.75
2018-07-15T00:44:03.473Z,68.55
2018-07-15T00:46:31.528Z,69.02
2018-07-15T00:48:59.583Z,69.00
2018-07-15T00:51:27.624Z,68.76
2018-07-15T00:53:55.813Z,68.70
2018-07-15T00:56:23.897Z,69.09
2018-07-15T00:58:51.936Z,68.87
2018-07-15T01:01:19.968Z,69.42
2018-07-15T01:03:48.026Z,68.82
2018-07-15T01:06:16.092Z,68.91
2018-07-15T01:08:44.134Z,69.17
2018-07-15T01:11:12.169Z,69.33
2018-07-15T01:13:40.200Z,69.61
2018-07-15T01:16:08.253Z,69.59
2018-07-15T01:18:36.404Z,69.57
2018-07-15T01:21:04.469Z,69.53
2018-07-15T01:23:32.525Z,69.51
2018-07-15T01:26:00.573Z,69.65
2018-07-15T01:28:28.634Z,69.92
2018-07-15T01:30:56.664Z,69.53
2018-07-15T01:33:24.809Z,69.50
2018-07-15T01:35:52.833Z,69.87
2018-07-15T01:38:20.872Z,69.92
2018-07-15T01:40:48.912Z,70.11
2018-07-15T01:43:16.954Z,70.29
2018-07-15T01:45:44.992Z,69.65
2018-07-15T01:48:13.061Z,69.88
2018-07-15T01:50:41.086Z,69.92
2018-07-15T01:53:09.128Z,70.04
2018-07-15T01:55:45.240Z,69.41
2018-07-15T01:58:13.276Z,70.30
2018-07-15T02:00:41.342Z,70.20
2018-07-15T02:03:09.369Z,70.16
2018-07-15T02:05:37.418Z,70.14
2018-07-15T02:08:05.707Z,70.06
2018-07-15T02:10:33.752Z,69.72
2018-07-15T02:13:01.811Z,69.85
2018-07-15T02:15:29.851Z,69.84
2018-07-15T02:17:57.889Z,70.36
2018-07-15T02:20:26.104Z,70.18
2018-07-15T02:22:54.139Z,70.66
2018-07-15T02:25:22.165Z,70.58
2018-07-15T02:27:50.207Z,70.33
2018-07-15T02:30:18.232Z,70.36
2018-07-15T02:32:46.273Z,70.00
2018-07-15T02:35:14.344Z,70.42
2018-07-15T02:37:42.410Z,70.44
2018-07-15T02:40:10.428Z,70.80
2018-07-15T02:42:38.495Z,71.11
2018-07-15T02:45:06.545Z,70.56
2018-07-15T02:47:34.572Z,70.58
2018-07-15T02:50:02.623Z,70.86
2018-07-15T02:52:30.680Z,70.86
2018-07-15T02:54:58.716Z,70.37
2018-07-15T02:57:26.780Z,70.97
2018-07-15T02:59:54.864Z,70.27
2018-07-15T03:02:22.911Z,70.62
2018-07-15T03:04:50.967Z,70.74
2018-07-15T03:07:18.993Z,71.31
2018-07-15T03:09:47.033Z,70.75
2018-07-15T03:12:15.062Z,70.65
2018-07-15T03:14:43.104Z,70.78
2018-07-15T03:17:11.161Z,71.21
2018-07-15T03:19:39.184Z,71.17
2018-07-15T03:22:07.726Z,70.61
2018-07-15T03:24:35.780Z,70.81
2018-07-15T03:27:03.800Z,70.82
2018-07-15T03:29:31.833Z,71.28
2018-07-15T03:31:59.862Z,71.42
2018-07-15T03:34:27.896Z,70.78
2018-07-15T03:36:55.928Z,71.06
2018-07-15T03:39:23.983Z,71.63
2018-07-15T03:41:52.012Z,71.17
2018-07-15T03:44:20.049Z,71.83
2018-07-15T03:46:48.131Z,71.45
2018-07-15T03:49:16.176Z,71.55
2018-07-15T03:51:44.218Z,71.31
2018-07-15T03:54:12.261Z,71.86
2018-07-15T03:56:40.307Z,71.78
2018-07-15T03:59:08.362Z,71.30
2018-07-15T04:01:36.396Z,71.47
2018-07-15T04:04:04.456Z,72.11
2018-07-15T04:06:32.501Z,71.97
2018-07-15T04:09:00.622Z,71.72
2018-07-15T04:11:28.588Z,72.47
2018-07-15T04:13:56.648Z,72.41
2018-07-15T04:16:24.673Z,72.01
2018-07-15T04:18:52.712Z,72.42
2018-07-15T04:21:20.748Z,72.68
2018-07-15T04:23:48.789Z,72.40
2018-07-15T04:26:16.831Z,72.63
2018-07-15T04:28:44.864Z,72.86
2018-07-15T04:31:12.891Z,72.79
2018-07-15T04:33:40.959Z,72.88
2018-07-15T04:36:08.997Z,73.19
2018-07-15T04:38:37.028Z,72.88
2018-07-15T04:41:05.056Z,72.65
2018-07-15T04:43:33.112Z,72.82
2018-07-15T04:46:01.136Z,73.22
2018-07-15T04:48:29.164Z,73.07
2018-07-15T04:50:57.208Z,73.04
2018-07-15T04:53:25.227Z,73.29
2018-07-15T04:55:53.276Z,73.48
2018-07-15T04:58:21.336Z,73.90
2018-07-15T05:00:49.388Z,74.02
2018-07-15T05:03:17.472Z,73.12
2018-07-15T05:05:45.519Z,73.61
2018-07-15T05:08:13.568Z,73.76
2018-07-15T05:10:41.600Z,73.56
2018-07-15T05:13:09.628Z,73.47
2018-07-15T05:15:37.663Z,73.54
2018-07-15T05:18:05.692Z,73.40
2018-07-15T05:20:33.733Z,73.60
2018-07-15T05:23:01.757Z,73.44
2018-07-15T05:25:29.824Z,73.23
2018-07-15T05:27:57.856Z,73.46
2018-07-15T05:30:25.916Z,73.10
2018-07-15T05:32:53.956Z,73.28
2018-07-15T05:35:21.994Z,73.10
2018-07-15T05:37:50.015Z,72.83
2018-07-15T05:40:18.052Z,72.86
2018-07-15T05:42:46.099Z,72.96
2018-07-15T05:45:14.152Z,72.92
2018-07-15T05:47:42.241Z,72.52
2018-07-15T05:50:10.281Z,72.23
2018-07-15T05:52:38.312Z,72.15
2018-07-15T05:55:06.392Z,72.13
2018-07-15T05:57:34.443Z,72.00
2018-07-15T06:00:02.492Z,71.90
2018-07-15T06:02:30.512Z,71.44
2018-07-15T06:04:58.552Z,71.50
2018-07-15T06:07:26.583Z,70.92
2018-07-15T06:09:54.632Z,71.09
2018-07-15T06:12:22.664Z,70.36
2018-07-15T06:14:50.701Z,70.64
2018-07-15T06:17:18.752Z,70.59
2018-07-15T06:19:46.784Z,70.36
2018-07-15T06:22:14.923Z,69.91
2018-07-15T06:24:42.964Z,69.30
2018-07-15T06:27:11.008Z,68.76
2018-07-15T06:29:39.086Z,68.70
2018-07-15T06:32:07.154Z,67.87
2018-07-15T06:34:35.181Z,67.49
2018-07-15T06:37:03.325Z,67.20
2018-07-15T06:39:31.347Z,66.09
2018-07-15T06:41:59.388Z,66.04
2018-07-15T06:44:27.421Z,65.40
2018-07-15T06:46:55.464Z,65.74
2018-07-15T06:49:23.550Z,64.81
2018-07-15T06:51:51.532Z,64.55
2018-07-15T06:54:19.576Z,65.07
2018-07-15T06:56:47.608Z,64.61
2018-07-15T06:59:15.648Z,64.16
2018-07-15T07:01:43.687Z,63.85
2018-07-15T07:04:11.739Z,62.86
2018-07-15T07:06:39.772Z,62.05
2018-07-15T07:09:08.245Z,62.17
2018-07-15T07:11:37.220Z,60.67
2018-07-15T07:14:05.495Z,61.06
2018-07-15T07:16:33.712Z,60.64
2018-07-15T07:19:01.761Z,59.68
2018-07-15T07:21:29.832Z,59.65
2018-07-15T07:23:57.872Z,59.04
2018-07-15T07:26:25.957Z,57.74
2018-07-15T07:28:54.055Z,58.55
2018-07-15T07:31:22.098Z,57.72
2018-07-15T07:33:50.137Z,57.73
2018-07-15T07:36:18.228Z,57.31
2018-07-15T07:38:46.360Z,56.63
2018-07-15T07:41:14.426Z,56.39
2018-07-15T07:43:42.420Z,56.42
2018-07-15T07:46:10.493Z,55.30
2018-07-15T07:48:38.536Z,55.49
2018-07-15T07:51:06.587Z,54.31
2018-07-15T07:53:34.611Z,53.80
2018-07-15T07:56:02.699Z,51.52
2018-07-15T07:58:30.736Z,53.10
2018-07-15T08:00:58.804Z,52.57
2018-07-15T08:03:26.844Z,52.40
2018-07-15T08:05:54.920Z,52.39
2018-07-15T08:08:22.952Z,52.07
2018-07-15T08:10:51.000Z,51.41
2018-07-15T08:13:19.056Z,51.05
2018-07-15T08:15:47.101Z,50.61
2018-07-15T08:18:15.148Z,50.45
2018-07-15T08:20:43.231Z,49.93
2018-07-15T08:23:11.320Z,49.62
2018-07-15T08:25:39.352Z,49.19
2018-07-15T08:28:07.502Z,48.60
2018-07-15T08:30:46.811Z,47.78
2018-07-15T08:33:14.877Z,46.99
2018-07-15T08:35:42.955Z,47.39
2018-07-15T08:38:11.040Z,47.16
2018-07-15T08:40:39.182Z,45.79
2018-07-15T08:43:07.231Z,46.91
2018-07-15T08:45:35.269Z,46.69
2018-07-15T08:48:03.347Z,46.89
2018-07-15T08:50:31.395Z,46.94
2018-07-15T08:52:59.472Z,46.43
2018-07-15T08:55:27.507Z,45.59
2018-07-15T08:57:55.573Z,46.18
2018-07-15T09:00:23.632Z,46.12
2018-07-15T09:02:51.696Z,44.46
2018-07-15T09:05:19.740Z,45.14
2018-07-15T09:07:47.796Z,44.85
2018-07-15T09:10:15.851Z,44.47
2018-07-15T09:12:43.946Z,44.36
2018-07-15T09:15:11.933Z,44.56
2018-07-15T09:17:39.991Z,43.33
2018-07-15T09:20:08.041Z,42.94
2018-07-15T09:22:36.088Z,42.91
2018-07-15T09:25:04.151Z,41.16
2018-07-15T09:27:32.208Z,41.80
2018-07-15T09:30:00.271Z,42.71
2018-07-15T09:32:28.319Z,41.65
2018-07-15T09:34:56.376Z,41.07
2018-07-15T09:37:24.416Z,40.59
2018-07-15T09:39:52.447Z,40.89
2018-07-15T09:42:20.492Z,39.64
2018-07-15T09:44:48.548Z,39.41
2018-07-15T09:47:16.639Z,40.06
2018-07-15T09:49:44.700Z,38.21
2018-07-15T09:52:12.750Z,39.00
2018-07-15T09:54:40.819Z,38.30
2018-07-15T09:57:08.878Z,37.91
2018-07-15T09:59:36.916Z,38.19
2018-07-15T10:02:04.986Z,37.69
2018-07-15T10:04:33.050Z,37.09
2018-07-15T10:07:01.093Z,37.33
2018-07-15T10:09:29.144Z,37.32
2018-07-15T10:11:57.203Z,36.72
2018-07-15T10:14:25.240Z,37.31
2018-07-15T10:16:53.303Z,37.00
2018-07-15T10:19:21.374Z,36.57
2018-07-15T10:21:49.454Z,36.32
2018-07-15T10:24:17.515Z,36.35
2018-07-15T10:26:45.639Z,36.88
2018-07-15T10:29:13.684Z,36.88
2018-07-15T10:31:41.724Z,36.12
2018-07-15T10:34:09.828Z,35.96
2018-07-15T10:36:37.879Z,36.18
2018-07-15T10:39:06.216Z,36.86
2018-07-15T10:41:34.184Z,36.86
2018-07-15T10:44:02.262Z,36.40
2018-07-15T10:46:30.288Z,37.19
2018-07-15T10:48:58.367Z,37.11
2018-07-15T10:51:26.436Z,37.22
2018-07-15T10:53:54.483Z,37.45
2018-07-15T10:56:22.525Z,37.33
2018-07-15T10:58:50.617Z,37.39
2018-07-15T11:01:18.663Z,37.39
2018-07-15T11:03:46.735Z,37.04
2018-07-15T11:06:14.828Z,36.59
2018-07-15T11:08:42.815Z,37.61
2018-07-15T11:11:10.864Z,37.07
2018-07-15T11:13:38.935Z,36.95
2018-07-15T11:16:06.992Z,37.02
2018-07-15T11:18:35.053Z,36.61
2018-07-15T11:21:03.095Z,36.89
2018-07-15T11:23:31.164Z,36.92
2018-07-15T11:25:59.201Z,37.08
2018-07-15T11:28:27.245Z,36.91
2018-07-15T11:30:55.399Z,35.21
2018-07-15T11:33:23.348Z,35.63
2018-07-15T11:35:51.388Z,35.82
2018-07-15T11:38:19.453Z,34.74
2018-07-15T11:40:47.503Z,34.74
2018-07-15T11:43:15.565Z,34.43
2018-07-15T11:45:43.637Z,35.04
2018-07-15T11:48:11.727Z,35.19
2018-07-15T11:50:39.724Z,34.97
2018-07-15T11:53:07.787Z,34.34
2018-07-15T11:55:35.855Z,35.16
2018-07-15T11:58:03.885Z,35.27
2018-07-15T12:00:31.936Z,34.74
2018-07-15T12:03:00.005Z,34.46
2018-07-15T12:05:28.090Z,33.25
2018-07-15T12:07:56.125Z,33.42
2018-07-15T12:10:24.177Z,32.55
2018-07-15T12:12:52.228Z,33.54
2018-07-15T12:15:20.275Z,32.94
2018-07-15T12:17:48.334Z,33.47
2018-07-15T12:20:16.403Z,33.71
2018-07-15T12:22:44.448Z,33.07
2018-07-15T12:25:12.491Z,32.64
2018-07-15T12:27:40.525Z,32.41
2018-07-15T12:30:08.595Z,32.50
2018-07-15T12:32:36.656Z,33.04
2018-07-15T12:35:04.775Z,32.08
2018-07-15T12:37:32.805Z,31.13
2018-07-15T12:40:00.866Z,31.29
2018-07-15T12:42:28.908Z,30.82
2018-07-15T12:44:56.964Z,31.30
2018-07-15T12:47:25.013Z,30.53
2018-07-15T12:49:53.081Z,31.05
2018-07-15T12:52:21.133Z,31.01
2018-07-15T12:54:49.172Z,31.26
2018-07-15T12:57:17.240Z,31.32
2018-07-15T12:59:45.312Z,31.34
2018-07-15T13:02:13.372Z,30.90
2018-07-15T13:04:41.440Z,30.28
2018-07-15T13:07:09.516Z,30.97
2018-07-15T13:09:37.576Z,29.38
2018-07-15T13:12:05.637Z,29.96
2018-07-15T13:14:33.739Z,30.06
2018-07-15T13:17:01.777Z,29.41
2018-07-15T13:19:29.823Z,29.35
2018-07-15T13:21:57.876Z,29.71
2018-07-15T13:24:25.956Z,30.21
2018-07-15T13:26:54.026Z,29.76
2018-07-15T13:29:22.071Z,30.06
2018-07-15T13:31:50.112Z,30.85
2018-07-15T13:34:18.180Z,31.93
2018-07-15T13:36:46.267Z,31.53
2018-07-15T13:39:14.264Z,32.14
2018-07-15T13:41:42.375Z,31.31
2018-07-15T13:44:10.360Z,31.22
2018-07-15T13:46:38.452Z,30.78
2018-07-15T13:49:06.721Z,31.15
2018-07-15T13:51:34.777Z,30.43
2018-07-15T13:54:02.820Z,30.55
2018-07-15T13:56:30.881Z,29.76
2018-07-15T13:58:58.940Z,29.85
2018-07-15T14:01:26.992Z,30.13
2018-07-15T14:03:55.044Z,29.78
2018-07-15T14:06:23.104Z,29.14
2018-07-15T14:08:51.499Z,29.54
2018-07-15T14:11:19.541Z,29.40
2018-07-15T14:13:47.584Z,28.48
2018-07-15T14:16:15.645Z,28.92
2018-07-15T14:18:43.727Z,28.44
2018-07-15T14:21:11.784Z,28.18
2018-07-15T14:23:39.834Z,28.45
2018-07-15T14:26:07.888Z,29.40
2018-07-15T14:28:35.944Z,28.40
2018-07-15T14:31:04.047Z,28.51
2018-07-15T14:33:32.120Z,28.63
2018-07-15T14:36:00.165Z,28.21
2018-07-15T14:38:28.226Z,27.71
2018-07-15T14:40:56.276Z,27.37
2018-07-15T14:43:24.334Z,27.39
2018-07-15T14:45:52.371Z,27.47
2018-07-15T14:48:20.464Z,28.23
2018-07-15T14:50:48.559Z,28.19
2018-07-15T14:53:16.592Z,27.96
2018-07-15T14:55:44.677Z,27.96
2018-07-15T14:58:12.717Z,27.13
2018-07-15T15:00:40.781Z,27.33
2018-07-15T15:03:08.888Z,28.47
2018-07-15T15:05:36.937Z,27.95
2018-07-15T15:08:05.052Z,29.35
2018-07-15T15:10:33.335Z,29.45
2018-07-15T15:13:02.139Z,28.92
2018-07-15T15:15:30.192Z,29.69
2018-07-15T15:17:58.248Z,29.17
2018-07-15T15:20:26.340Z,28.91
2018-07-15T15:22:54.390Z,30.22
2018-07-15T15:25:22.485Z,29.51
2018-07-15T15:27:50.532Z,29.12
2018-07-15T15:30:18.578Z,29.80
2018-07-15T15:32:46.656Z,29.87
2018-07-15T15:35:14.722Z,29.72
2018-07-15T15:37:42.796Z,30.38
2018-07-15T15:40:10.931Z,30.14
2018-07-15T15:42:38.976Z,30.35
2018-07-15T15:45:07.305Z,30.94
2018-07-15T15:47:38.284Z,31.03
2018-07-15T15:50:12.820Z,32.08
2018-07-15T15:52:40.892Z,32.51
2018-07-15T15:55:08.935Z,32.37
2018-07-15T15:57:36.980Z,32.86
2018-07-15T16:00:05.331Z,31.97
2018-07-15T16:02:33.364Z,32.05
2018-07-15T16:05:01.424Z,32.25
2018-07-15T16:07:29.475Z,31.79
2018-07-15T16:09:57.524Z,30.97
2018-07-15T16:12:25.576Z,31.10
2018-07-15T16:14:53.632Z,31.36
2018-07-15T16:17:21.687Z,32.15
2018-07-15T16:19:49.741Z,31.06
2018-07-15T16:22:17.792Z,30.88
2018-07-15T16:24:45.832Z,31.26
2018-07-15T16:27:13.928Z,30.93
2018-07-15T16:29:41.979Z,30.79
2018-07-15T16:32:10.021Z,31.21
2018-07-15T16:34:38.075Z,31.45
2018-07-15T16:37:06.114Z,31.32
2018-07-15T16:39:34.181Z,31.41
2018-07-15T16:42:02.268Z,32.19
2018-07-15T16:44:30.323Z,32.28
2018-07-15T16:46:58.383Z,31.65
2018-07-15T16:49:26.424Z,31.30
2018-07-15T16:51:54.471Z,31.57
2018-07-15T16:54:22.552Z,31.54
2018-07-15T16:56:50.881Z,32.61
2018-07-15T16:59:18.963Z,31.57
2018-07-15T17:01:47.011Z,32.23
2018-07-15T17:04:15.054Z,31.94
2018-07-15T17:06:43.108Z,32.34
2018-07-15T17:09:11.156Z,33.29
2018-07-15T17:11:39.191Z,32.58
2018-07-15T17:14:07.336Z,33.20
2018-07-15T17:16:35.321Z,32.74
2018-07-15T17:19:03.371Z,33.23
2018-07-15T17:21:31.412Z,32.69
2018-07-15T17:23:59.463Z,33.66
2018-07-15T17:26:27.519Z,33.14
2018-07-15T17:28:55.560Z,34.00
2018-07-15T17:31:23.628Z,33.03
2018-07-15T17:33:51.684Z,33.61
2018-07-15T17:36:19.715Z,33.98
2018-07-15T17:38:47.757Z,33.36
2018-07-15T17:41:15.788Z,33.12
2018-07-15T17:43:44.243Z,33.74
2018-07-15T17:46:12.339Z,34.05
2018-07-15T17:48:40.416Z,34.13
2018-07-15T17:51:08.479Z,34.05
2018-07-15T17:53:37.024Z,33.29
2018-07-15T17:56:05.172Z,34.20
2018-07-15T17:58:33.261Z,33.92
2018-07-15T18:01:01.301Z,34.00
2018-07-15T18:03:29.376Z,33.33
2018-07-15T18:05:57.444Z,33.73
2018-07-15T18:08:25.477Z,33.81
2018-07-15T18:10:53.513Z,34.48
2018-07-15T18:13:21.579Z,34.80
2018-07-15T18:15:49.612Z,35.48
2018-07-15T18:18:17.672Z,36.57
2018-07-15T18:20:45.796Z,36.14
2018-07-15T18:23:13.818Z,36.10
2018-07-15T18:25:41.849Z,37.30
2018-07-15T18:28:09.920Z,38.18
2018-07-15T18:30:37.957Z,38.49
2018-07-15T18:33:06.056Z,37.63
2018-07-15T18:35:34.108Z,38.79
2018-07-15T18:38:02.188Z,38.04
2018-07-15T18:40:30.240Z,39.55
2018-07-15T18:42:58.316Z,38.92
2018-07-15T18:45:26.346Z,39.17
2018-07-15T18:47:54.480Z,39.43
2018-07-15T18:50:22.528Z,38.49
2018-07-15T18:52:50.593Z,38.48
2018-07-15T18:55:18.643Z,38.38
2018-07-15T18:57:46.711Z,39.10
2018-07-15T19:00:14.760Z,38.71
2018-07-15T19:02:42.809Z,38.44
2018-07-15T19:05:10.850Z,38.48
2018-07-15T19:07:38.928Z,38.49
2018-07-15T19:10:06.961Z,39.37
2018-07-15T19:12:35.023Z,39.04
2018-07-15T19:15:03.115Z,39.72
2018-07-15T19:17:31.160Z,39.48
2018-07-15T19:19:59.205Z,39.80
2018-07-15T19:22:27.244Z,40.29
2018-07-15T19:24:55.600Z,39.69
2018-07-15T19:27:23.640Z,40.17
2018-07-15T19:29:51.704Z,39.70
2018-07-15T19:32:19.736Z,40.08
2018-07-15T19:34:47.781Z,39.98
2018-07-15T19:37:15.820Z,41.06
2018-07-15T19:39:43.864Z,41.05
2018-07-15T19:42:11.904Z,40.57
2018-07-15T19:44:39.962Z,41.21
2018-07-15T19:47:07.996Z,41.15
2018-07-15T19:49:36.404Z,42.04
2018-07-15T19:52:04.469Z,42.96
2018-07-15T19:54:32.580Z,43.33
2018-07-15T19:57:00.671Z,44.20
2018-07-15T19:59:28.732Z,43.71
2018-07-15T20:01:56.781Z,43.97
2018-07-15T20:04:24.829Z,45.43
2018-07-15T20:06:52.915Z,45.08
2018-07-15T20:09:20.970Z,45.83
2018-07-15T20:11:49.015Z,45.38
2018-07-15T20:14:17.077Z,45.49
2018-07-15T20:16:45.127Z,46.47
2018-07-15T20:19:13.226Z,46.45
2018-07-15T20:21:41.357Z,45.83
2018-07-15T20:24:09.364Z,46.21
2018-07-15T20:26:37.423Z,47.14
2018-07-15T20:29:05.484Z,46.59
2018-07-15T20:31:33.536Z,47.59
2018-07-15T20:34:01.621Z,47.58
2018-07-15T20:36:29.680Z,47.99
2018-07-15T20:38:57.744Z,48.33
2018-07-15T20:41:25.792Z,48.26
2018-07-15T20:43:53.855Z,48.86
2018-07-15T20:46:21.921Z,49.12
2018-07-15T20:48:49.964Z,49.29
2018-07-15T20:51:18.028Z,49.64
2018-07-15T20:53:46.081Z,49.90
2018-07-15T20:56:14.159Z,50.24
2018-07-15T20:58:42.195Z,50.80
2018-07-15T21:01:10.249Z,50.85
2018-07-15T21:03:38.296Z,51.26
2018-07-15T21:06:07.140Z,51.36
2018-07-15T21:08:35.358Z,51.52
2018-07-15T21:11:03.414Z,52.15
2018-07-15T21:13:31.453Z,52.13
2018-07-15T21:15:59.492Z,52.45
2018-07-15T21:18:27.536Z,52.47
2018-07-15T21:20:55.589Z,52.84
2018-07-15T21:23:23.672Z,52.61
2018-07-15T21:25:51.717Z,53.39
2018-07-15T21:28:19.783Z,52.94
2018-07-15T21:30:47.831Z,53.62
2018-07-15T21:33:15.881Z,53.73
2018-07-15T21:35:43.960Z,53.53
2018-07-15T21:38:12.081Z,53.66
2018-07-15T21:40:40.188Z,54.41
2018-07-15T21:43:08.242Z,54.42
2018-07-15T21:45:36.326Z,54.76
2018-07-15T21:48:04.445Z,54.60
2018-07-15T21:50:32.516Z,54.99
2018-07-15T21:53:00.564Z,54.82
2018-07-15T21:55:28.755Z,54.93
2018-07-15T21:57:56.800Z,55.40
2018-07-15T22:00:24.869Z,54.98
2018-07-15T22:02:53.030Z,55.66
2018-07-15T22:05:21.080Z,55.66
2018-07-15T22:08:00.688Z,55.81
2018-07-15T22:10:36.718Z,55.58
2018-07-15T22:13:04.748Z,55.89
2018-07-15T22:15:32.800Z,56.01
2018-07-15T22:18:00.848Z,56.06
2018-07-15T22:20:28.892Z,56.78
2018-07-15T22:22:56.993Z,56.67
2018-07-15T22:25:25.092Z,56.93
2018-07-15T22:27:53.147Z,57.33
2018-07-15T22:30:21.219Z,56.68
2018-07-15T22:32:49.243Z,57.15
2018-07-15T22:35:17.296Z,57.23
2018-07-15T22:37:45.343Z,57.77
2018-07-15T22:40:13.419Z,57.21
2018-07-15T22:42:41.456Z,57.83
2018-07-15T22:45:09.528Z,57.73
2018-07-15T22:47:37.609Z,57.73
2018-07-15T22:50:05.648Z,58.34
2018-07-15T22:52:33.700Z,58.43
2018-07-15T22:55:01.868Z,57.94
2018-07-15T22:57:29.905Z,57.62
2018-07-15T22:59:57.944Z,58.06
2018-07-15T23:02:25.991Z,58.11
2018-07-15T23:06:03.070Z,58.63
2018-07-15T23:08:32.212Z,58.23
2018-07-15T23:11:00.272Z,58.61
2018-07-15T23:13:28.344Z,59.14
2018-07-15T23:15:56.392Z,59.35
2018-07-15T23:18:24.450Z,59.28
2018-07-15T23:20:52.673Z,59.85
2018-07-15T23:23:20.742Z,59.85
2018-07-15T23:25:48.812Z,60.29
2018-07-15T23:28:17.604Z,60.02
2018-07-15T23:30:46.083Z,60.62
2018-07-15T23:33:14.200Z,60.49
2018-07-15T23:35:42.233Z,60.69
2018-07-15T23:38:10.263Z,60.90
2018-07-15T23:40:38.300Z,60.95
2018-07-15T23:43:06.339Z,61.03
2018-07-15T23:45:35.209Z,61.27
2018-07-15T23:48:03.250Z,61.07
2018-07-15T23:50:31.283Z,60.79
2018-07-15T23:52:59.355Z,61.45
2018-07-15T23:55:27.397Z,61.17
2018-07-15T23:57:55.564Z,61.21
